sensor_id;sensor_type;location;lat;lon;timestamp;temperature;humidity
11944;DHT22;6031;50.220;10.122;2023-02-03T00:00:22;5.60;99.90
11944;DHT22;6031;50.220;10.122;2023-02-03T00:02:48;5.60;99.90
11944;DHT22;6031;50.220;10.122;2023-02-03T00:05:13;5.60;99.90
11944;DHT22;6031;50.220;10.122;2023-02-03T00:07:39;5.60;99.90
11944;DHT22;6031;50.220;10.122;2023-02-03T00:10:05;5.60;99.90
11944;DHT22;6031;50.220;10.122;2023-02-03T00:12:31;5.70;99.90
11944;DHT22;6031;50.220;10.122;2023-02-03T00:14:57;5.70;99.90
11944;DHT22;6031;50.220;10.122;2023-02-03T00:17:23;5.60;99.90
11944;DHT22;6031;50.220;10.122;2023-02-03T00:19:48;5.60;99.90
11944;DHT22;6031;50.220;10.122;2023-02-03T00:22:14;5.70;99.90
11944;DHT22;6031;50.220;10.122;2023-02-03T00:24:40;5.60;99.90
11944;DHT22;6031;50.220;10.122;2023-02-03T00:27:05;5.70;99.90
11944;DHT22;6031;50.220;10.122;2023-02-03T00:29:31;5.70;99.90
11944;DHT22;6031;50.220;10.122;2023-02-03T00:31:56;5.70;99.90
11944;DHT22;6031;50.220;10.122;2023-02-03T00:34:27;5.70;99.90
11944;DHT22;6031;50.220;10.122;2023-02-03T00:36:53;5.70;99.90
11944;DHT22;6031;50.220;10.122;2023-02-03T00:39:18;5.70;99.90
11944;DHT22;6031;50.220;10.122;2023-02-03T00:41:44;5.70;99.90
11944;DHT22;6031;50.220;10.122;2023-02-03T00:44:09;5.70;99.90
11944;DHT22;6031;50.220;10.122;2023-02-03T00:46:35;5.70;99.90
11944;DHT22;6031;50.220;10.122;2023-02-03T00:49:02;5.70;99.90
11944;DHT22;6031;50.220;10.122;2023-02-03T00:51:27;5.70;99.90
11944;DHT22;6031;50.220;10.122;2023-02-03T00:53:53;5.80;99.90
11944;DHT22;6031;50.220;10.122;2023-02-03T00:56:18;5.80;99.90
11944;DHT22;6031;50.220;10.122;2023-02-03T00:58:44;5.80;99.90
11944;DHT22;6031;50.220;10.122;2023-02-03T01:01:09;5.80;99.90
11944;DHT22;6031;50.220;10.122;2023-02-03T01:03:35;5.80;99.90
11944;DHT22;6031;50.220;10.122;2023-02-03T01:06:09;5.80;99.90
11944;DHT22;6031;50.220;10.122;2023-02-03T01:08:34;5.80;99.90
11944;DHT22;6031;50.220;10.122;2023-02-03T01:11:08;5.80;99.90
11944;DHT22;6031;50.220;10.122;2023-02-03T01:13:34;5.90;99.90
11944;DHT22;6031;50.220;10.122;2023-02-03T01:16:00;5.90;99.90
11944;DHT22;6031;50.220;10.122;2023-02-03T01:18:25;5.90;99.90
11944;DHT22;6031;50.220;10.122;2023-02-03T01:20:51;5.90;99.90
11944;DHT22;6031;50.220;10.122;2023-02-03T01:23:16;6.00;99.90
11944;DHT22;6031;50.220;10.122;2023-02-03T01:25:42;5.90;99.90
11944;DHT22;6031;50.220;10.122;2023-02-03T01:28:07;6.00;99.90
11944;DHT22;6031;50.220;10.122;2023-02-03T01:30:33;6.00;99.90
11944;DHT22;6031;50.220;10.122;2023-02-03T01:32:59;6.10;99.90
11944;DHT22;6031;50.220;10.122;2023-02-03T01:35:24;6.00;99.90
11944;DHT22;6031;50.220;10.122;2023-02-03T01:37:50;6.00;99.90
11944;DHT22;6031;50.220;10.122;2023-02-03T01:40:15;6.00;99.90
11944;DHT22;6031;50.220;10.122;2023-02-03T01:42:41;6.00;99.90
11944;DHT22;6031;50.220;10.122;2023-02-03T01:45:07;6.00;99.90
11944;DHT22;6031;50.220;10.122;2023-02-03T01:47:45;6.00;99.90
11944;DHT22;6031;50.220;10.122;2023-02-03T01:50:35;5.90;99.90
11944;DHT22;6031;50.220;10.122;2023-02-03T01:53:04;5.90;99.90
11944;DHT22;6031;50.220;10.122;2023-02-03T01:55:34;5.90;99.90
11944;DHT22;6031;50.220;10.122;2023-02-03T01:58:26;5.90;99.90
11944;DHT22;6031;50.220;10.122;2023-02-03T02:00:53;5.90;99.90
11944;DHT22;6031;50.220;10.122;2023-02-03T02:03:25;5.90;99.90
11944;DHT22;6031;50.220;10.122;2023-02-03T02:05:59;5.90;99.90
11944;DHT22;6031;50.220;10.122;2023-02-03T02:08:26;5.90;99.90
11944;DHT22;6031;50.220;10.122;2023-02-03T02:10:52;5.90;99.90
11944;DHT22;6031;50.220;10.122;2023-02-03T02:13:19;5.90;99.90
11944;DHT22;6031;50.220;10.122;2023-02-03T02:16:04;5.80;99.90
11944;DHT22;6031;50.220;10.122;2023-02-03T02:21:41;5.90;99.90
11944;DHT22;6031;50.220;10.122;2023-02-03T02:27:11;5.90;99.90
11944;DHT22;6031;50.220;10.122;2023-02-03T02:32:46;5.90;99.90
11944;DHT22;6031;50.220;10.122;2023-02-03T02:35:39;5.90;99.90
11944;DHT22;6031;50.220;10.122;2023-02-03T02:38:18;5.90;99.90
11944;DHT22;6031;50.220;10.122;2023-02-03T02:40:59;5.90;99.90
11944;DHT22;6031;50.220;10.122;2023-02-03T02:43:41;5.90;99.90
11944;DHT22;6031;50.220;10.122;2023-02-03T02:46:22;5.90;99.90
11944;DHT22;6031;50.220;10.122;2023-02-03T02:49:12;6.00;99.90
11944;DHT22;6031;50.220;10.122;2023-02-03T02:51:40;6.00;99.90
11944;DHT22;6031;50.220;10.122;2023-02-03T02:54:12;6.00;99.90
11944;DHT22;6031;50.220;10.122;2023-02-03T02:56:39;6.00;99.90
11944;DHT22;6031;50.220;10.122;2023-02-03T02:59:07;6.10;99.90
11944;DHT22;6031;50.220;10.122;2023-02-03T03:01:32;6.10;99.90
11944;DHT22;6031;50.220;10.122;2023-02-03T03:04:00;6.00;99.90
11944;DHT22;6031;50.220;10.122;2023-02-03T03:06:41;6.10;99.90
11944;DHT22;6031;50.220;10.122;2023-02-03T03:09:11;6.10;99.90
11944;DHT22;6031;50.220;10.122;2023-02-03T03:11:44;6.10;99.90
11944;DHT22;6031;50.220;10.122;2023-02-03T03:14:11;6.10;99.90
11944;DHT22;6031;50.220;10.122;2023-02-03T03:16:43;6.10;99.90
11944;DHT22;6031;50.220;10.122;2023-02-03T03:19:21;6.10;99.90
11944;DHT22;6031;50.220;10.122;2023-02-03T03:22:00;6.10;99.90
11944;DHT22;6031;50.220;10.122;2023-02-03T03:24:31;6.00;99.90
11944;DHT22;6031;50.220;10.122;2023-02-03T03:27:08;6.10;99.90
11944;DHT22;6031;50.220;10.122;2023-02-03T03:29:59;6.10;99.90
11944;DHT22;6031;50.220;10.122;2023-02-03T03:32:26;6.00;99.90
11944;DHT22;6031;50.220;10.122;2023-02-03T03:34:57;6.10;99.90
11944;DHT22;6031;50.220;10.122;2023-02-03T03:39:57;6.00;99.90
11944;DHT22;6031;50.220;10.122;2023-02-03T03:42:33;6.00;99.90
11944;DHT22;6031;50.220;10.122;2023-02-03T03:47:33;6.00;99.90
11944;DHT22;6031;50.220;10.122;2023-02-03T03:50:01;5.90;99.90
11944;DHT22;6031;50.220;10.122;2023-02-03T03:52:31;5.90;99.90
11944;DHT22;6031;50.220;10.122;2023-02-03T03:55:00;5.90;99.90
11944;DHT22;6031;50.220;10.122;2023-02-03T03:57:35;5.90;99.90
11944;DHT22;6031;50.220;10.122;2023-02-03T04:00:04;5.90;99.90
11944;DHT22;6031;50.220;10.122;2023-02-03T04:02:32;6.00;99.90
11944;DHT22;6031;50.220;10.122;2023-02-03T04:05:00;6.00;99.90
11944;DHT22;6031;50.220;10.122;2023-02-03T04:07:44;6.00;99.90
11944;DHT22;6031;50.220;10.122;2023-02-03T04:10:31;6.00;99.90
11944;DHT22;6031;50.220;10.122;2023-02-03T04:12:57;6.00;99.90
11944;DHT22;6031;50.220;10.122;2023-02-03T04:15:22;5.90;99.90
11944;DHT22;6031;50.220;10.122;2023-02-03T04:17:48;5.90;99.90
11944;DHT22;6031;50.220;10.122;2023-02-03T04:20:14;6.00;99.90
11944;DHT22;6031;50.220;10.122;2023-02-03T04:22:39;6.00;99.90
11944;DHT22;6031;50.220;10.122;2023-02-03T04:25:05;6.00;99.90
11944;DHT22;6031;50.220;10.122;2023-02-03T04:27:31;6.00;99.90
11944;DHT22;6031;50.220;10.122;2023-02-03T04:29:56;6.00;99.90
11944;DHT22;6031;50.220;10.122;2023-02-03T04:32:22;6.00;99.90
11944;DHT22;6031;50.220;10.122;2023-02-03T04:34:47;5.90;99.90
11944;DHT22;6031;50.220;10.122;2023-02-03T04:37:13;6.00;99.90
11944;DHT22;6031;50.220;10.122;2023-02-03T04:39:38;6.00;99.90
11944;DHT22;6031;50.220;10.122;2023-02-03T04:42:04;5.90;99.90
11944;DHT22;6031;50.220;10.122;2023-02-03T04:44:29;6.00;99.90
11944;DHT22;6031;50.220;10.122;2023-02-03T04:46:55;6.00;99.90
11944;DHT22;6031;50.220;10.122;2023-02-03T04:49:20;6.00;99.90
11944;DHT22;6031;50.220;10.122;2023-02-03T04:51:49;5.90;99.90
11944;DHT22;6031;50.220;10.122;2023-02-03T04:54:15;6.00;99.90
11944;DHT22;6031;50.220;10.122;2023-02-03T04:56:41;6.00;99.90
11944;DHT22;6031;50.220;10.122;2023-02-03T04:59:06;6.00;99.90
11944;DHT22;6031;50.220;10.122;2023-02-03T05:01:32;6.10;99.90
11944;DHT22;6031;50.220;10.122;2023-02-03T05:03:57;6.10;99.90
11944;DHT22;6031;50.220;10.122;2023-02-03T05:06:24;6.10;99.90
11944;DHT22;6031;50.220;10.122;2023-02-03T05:08:53;6.10;99.90
11944;DHT22;6031;50.220;10.122;2023-02-03T05:11:20;6.10;99.90
11944;DHT22;6031;50.220;10.122;2023-02-03T05:13:45;6.10;99.90
11944;DHT22;6031;50.220;10.122;2023-02-03T05:16:11;6.10;99.90
11944;DHT22;6031;50.220;10.122;2023-02-03T05:18:36;6.10;99.90
11944;DHT22;6031;50.220;10.122;2023-02-03T05:21:02;6.10;99.90
11944;DHT22;6031;50.220;10.122;2023-02-03T05:23:27;6.10;99.90
11944;DHT22;6031;50.220;10.122;2023-02-03T05:25:53;6.10;99.90
11944;DHT22;6031;50.220;10.122;2023-02-03T05:28:18;6.10;99.90
11944;DHT22;6031;50.220;10.122;2023-02-03T05:30:44;6.10;99.90
11944;DHT22;6031;50.220;10.122;2023-02-03T05:33:09;6.20;99.90
11944;DHT22;6031;50.220;10.122;2023-02-03T05:35:35;6.20;99.90
11944;DHT22;6031;50.220;10.122;2023-02-03T05:38:01;6.20;99.90
11944;DHT22;6031;50.220;10.122;2023-02-03T05:40:26;6.20;99.90
11944;DHT22;6031;50.220;10.122;2023-02-03T05:43:11;6.20;99.90
11944;DHT22;6031;50.220;10.122;2023-02-03T05:45:36;6.20;99.90
11944;DHT22;6031;50.220;10.122;2023-02-03T05:48:02;6.20;99.90
11944;DHT22;6031;50.220;10.122;2023-02-03T05:50:29;6.20;99.90
11944;DHT22;6031;50.220;10.122;2023-02-03T05:52:58;6.20;99.90
11944;DHT22;6031;50.220;10.122;2023-02-03T05:55:24;6.30;99.90
11944;DHT22;6031;50.220;10.122;2023-02-03T05:57:50;6.20;99.90
11944;DHT22;6031;50.220;10.122;2023-02-03T06:00:15;6.20;99.90
11944;DHT22;6031;50.220;10.122;2023-02-03T06:02:41;6.20;99.90
11944;DHT22;6031;50.220;10.122;2023-02-03T06:05:07;6.20;99.90
11944;DHT22;6031;50.220;10.122;2023-02-03T06:07:33;6.20;99.90
11944;DHT22;6031;50.220;10.122;2023-02-03T06:09:58;6.20;99.90
11944;DHT22;6031;50.220;10.122;2023-02-03T06:12:24;6.20;99.90
11944;DHT22;6031;50.220;10.122;2023-02-03T06:14:49;6.20;99.90
11944;DHT22;6031;50.220;10.122;2023-02-03T06:17:15;6.20;99.90
11944;DHT22;6031;50.220;10.122;2023-02-03T06:19:40;6.20;99.90
11944;DHT22;6031;50.220;10.122;2023-02-03T06:22:06;6.20;99.90
11944;DHT22;6031;50.220;10.122;2023-02-03T06:24:31;6.20;99.90
11944;DHT22;6031;50.220;10.122;2023-02-03T06:26:57;6.20;99.90
11944;DHT22;6031;50.220;10.122;2023-02-03T06:29:22;6.20;99.90
11944;DHT22;6031;50.220;10.122;2023-02-03T06:31:48;6.20;99.90
11944;DHT22;6031;50.220;10.122;2023-02-03T06:34:13;6.30;99.90
11944;DHT22;6031;50.220;10.122;2023-02-03T06:36:39;6.30;99.90
11944;DHT22;6031;50.220;10.122;2023-02-03T06:39:04;6.30;99.90
11944;DHT22;6031;50.220;10.122;2023-02-03T06:41:30;6.30;99.90
11944;DHT22;6031;50.220;10.122;2023-02-03T06:43:57;6.30;99.90
11944;DHT22;6031;50.220;10.122;2023-02-03T06:46:22;6.30;99.90
11944;DHT22;6031;50.220;10.122;2023-02-03T06:48:52;6.40;99.90
11944;DHT22;6031;50.220;10.122;2023-02-03T06:51:17;6.40;99.90
11944;DHT22;6031;50.220;10.122;2023-02-03T06:53:43;6.50;99.90
11944;DHT22;6031;50.220;10.122;2023-02-03T06:56:08;6.50;99.90
11944;DHT22;6031;50.220;10.122;2023-02-03T06:58:34;6.60;99.90
11944;DHT22;6031;50.220;10.122;2023-02-03T07:00:59;6.50;99.90
11944;DHT22;6031;50.220;10.122;2023-02-03T07:03:25;6.50;99.90
11944;DHT22;6031;50.220;10.122;2023-02-03T07:05:50;6.60;99.90
11944;DHT22;6031;50.220;10.122;2023-02-03T07:08:16;6.60;99.90
11944;DHT22;6031;50.220;10.122;2023-02-03T07:10:41;6.60;99.90
11944;DHT22;6031;50.220;10.122;2023-02-03T07:13:07;6.60;99.90
11944;DHT22;6031;50.220;10.122;2023-02-03T07:15:33;6.60;99.90
11944;DHT22;6031;50.220;10.122;2023-02-03T07:17:58;6.60;99.90
11944;DHT22;6031;50.220;10.122;2023-02-03T07:20:24;6.70;99.90
11944;DHT22;6031;50.220;10.122;2023-02-03T07:22:57;6.70;99.90
11944;DHT22;6031;50.220;10.122;2023-02-03T07:25:23;6.70;99.90
11944;DHT22;6031;50.220;10.122;2023-02-03T07:27:49;6.70;99.90
11944;DHT22;6031;50.220;10.122;2023-02-03T07:30:15;6.80;99.90
11944;DHT22;6031;50.220;10.122;2023-02-03T07:32:45;6.90;99.90
11944;DHT22;6031;50.220;10.122;2023-02-03T07:35:11;6.90;99.90
11944;DHT22;6031;50.220;10.122;2023-02-03T07:37:36;6.80;99.90
11944;DHT22;6031;50.220;10.122;2023-02-03T07:40:02;6.80;99.90
11944;DHT22;6031;50.220;10.122;2023-02-03T07:42:28;6.90;99.90
11944;DHT22;6031;50.220;10.122;2023-02-03T07:44:53;6.90;99.90
11944;DHT22;6031;50.220;10.122;2023-02-03T07:47:19;6.90;99.90
11944;DHT22;6031;50.220;10.122;2023-02-03T07:49:44;6.90;99.90
11944;DHT22;6031;50.220;10.122;2023-02-03T07:52:10;6.90;99.90
11944;DHT22;6031;50.220;10.122;2023-02-03T07:54:35;6.90;99.90
11944;DHT22;6031;50.220;10.122;2023-02-03T07:57:01;6.90;99.90
11944;DHT22;6031;50.220;10.122;2023-02-03T07:59:26;6.90;99.90
11944;DHT22;6031;50.220;10.122;2023-02-03T08:01:52;6.90;99.90
11944;DHT22;6031;50.220;10.122;2023-02-03T08:04:21;6.90;99.90
11944;DHT22;6031;50.220;10.122;2023-02-03T08:06:46;6.90;99.90
11944;DHT22;6031;50.220;10.122;2023-02-03T08:09:12;6.90;99.90
11944;DHT22;6031;50.220;10.122;2023-02-03T08:11:37;6.90;99.90
11944;DHT22;6031;50.220;10.122;2023-02-03T08:14:03;6.90;99.90
11944;DHT22;6031;50.220;10.122;2023-02-03T08:16:28;6.90;64.50
11944;DHT22;6031;50.220;10.122;2023-02-03T08:18:54;6.90;99.90
11944;DHT22;6031;50.220;10.122;2023-02-03T08:21:19;6.90;99.90
11944;DHT22;6031;50.220;10.122;2023-02-03T08:23:45;6.90;88.20
11944;DHT22;6031;50.220;10.122;2023-02-03T08:26:10;6.90;58.60
11944;DHT22;6031;50.220;10.122;2023-02-03T08:28:36;6.90;1.00
11944;DHT22;6031;50.220;10.122;2023-02-03T08:31:08;7.00;1.00
11944;DHT22;6031;50.220;10.122;2023-02-03T08:33:34;7.00;1.00
11944;DHT22;6031;50.220;10.122;2023-02-03T08:35:59;7.00;1.00
11944;DHT22;6031;50.220;10.122;2023-02-03T08:38:25;7.00;1.00
11944;DHT22;6031;50.220;10.122;2023-02-03T08:40:51;7.00;1.00
11944;DHT22;6031;50.220;10.122;2023-02-03T08:43:16;7.00;1.00
11944;DHT22;6031;50.220;10.122;2023-02-03T08:45:42;7.00;1.00
11944;DHT22;6031;50.220;10.122;2023-02-03T08:48:07;7.00;1.00
11944;DHT22;6031;50.220;10.122;2023-02-03T08:50:33;7.00;1.00
11944;DHT22;6031;50.220;10.122;2023-02-03T08:52:58;7.00;1.00
11944;DHT22;6031;50.220;10.122;2023-02-03T08:55:24;7.00;25.00
11944;DHT22;6031;50.220;10.122;2023-02-03T08:57:49;7.00;1.00
11944;DHT22;6031;50.220;10.122;2023-02-03T09:00:15;7.00;1.00
11944;DHT22;6031;50.220;10.122;2023-02-03T09:02:41;7.00;13.50
11944;DHT22;6031;50.220;10.122;2023-02-03T09:05:07;7.00;1.00
11944;DHT22;6031;50.220;10.122;2023-02-03T09:07:32;7.00;1.00
11944;DHT22;6031;50.220;10.122;2023-02-03T09:09:58;7.00;1.00
11944;DHT22;6031;50.220;10.122;2023-02-03T09:12:23;7.00;1.00
11944;DHT22;6031;50.220;10.122;2023-02-03T09:14:49;7.00;1.00
11944;DHT22;6031;50.220;10.122;2023-02-03T09:17:15;7.10;1.00
11944;DHT22;6031;50.220;10.122;2023-02-03T09:19:40;7.10;1.00
11944;DHT22;6031;50.220;10.122;2023-02-03T09:22:06;7.10;1.00
11944;DHT22;6031;50.220;10.122;2023-02-03T09:24:31;7.10;1.00
11944;DHT22;6031;50.220;10.122;2023-02-03T09:26:57;7.10;1.00
11944;DHT22;6031;50.220;10.122;2023-02-03T09:29:22;7.10;1.00
11944;DHT22;6031;50.220;10.122;2023-02-03T09:31:49;7.10;1.00
11944;DHT22;6031;50.220;10.122;2023-02-03T09:34:18;7.10;1.00
11944;DHT22;6031;50.220;10.122;2023-02-03T09:36:44;7.10;1.00
11944;DHT22;6031;50.220;10.122;2023-02-03T09:39:09;7.10;1.00
11944;DHT22;6031;50.220;10.122;2023-02-03T09:41:55;7.20;1.00
11944;DHT22;6031;50.220;10.122;2023-02-03T09:44:39;7.20;1.00
11944;DHT22;6031;50.220;10.122;2023-02-03T09:47:17;7.20;1.00
11944;DHT22;6031;50.220;10.122;2023-02-03T09:49:57;7.20;1.00
11944;DHT22;6031;50.220;10.122;2023-02-03T09:52:28;7.20;1.00
11944;DHT22;6031;50.220;10.122;2023-02-03T09:58:00;7.30;1.00
11944;DHT22;6031;50.220;10.122;2023-02-03T10:00:39;7.20;1.00
11944;DHT22;6031;50.220;10.122;2023-02-03T10:09:16;7.30;1.00
11944;DHT22;6031;50.220;10.122;2023-02-03T10:12:14;7.30;1.00
11944;DHT22;6031;50.220;10.122;2023-02-03T10:17:30;7.30;1.00
11944;DHT22;6031;50.220;10.122;2023-02-03T10:20:16;7.30;1.00
11944;DHT22;6031;50.220;10.122;2023-02-03T10:22:59;7.40;1.00
11944;DHT22;6031;50.220;10.122;2023-02-03T10:25:30;7.50;8.50
11944;DHT22;6031;50.220;10.122;2023-02-03T10:28:01;7.60;99.90
11944;DHT22;6031;50.220;10.122;2023-02-03T10:30:32;7.60;1.00
11944;DHT22;6031;50.220;10.122;2023-02-03T10:33:14;7.60;1.00
11944;DHT22;6031;50.220;10.122;2023-02-03T10:35:59;7.60;1.00
11944;DHT22;6031;50.220;10.122;2023-02-03T10:41:11;7.70;18.20
11944;DHT22;6031;50.220;10.122;2023-02-03T10:43:37;7.70;99.90
11944;DHT22;6031;50.220;10.122;2023-02-03T10:46:15;7.70;1.00
11944;DHT22;6031;50.220;10.122;2023-02-03T10:48:41;7.70;99.90
11944;DHT22;6031;50.220;10.122;2023-02-03T10:51:25;7.70;99.90
11944;DHT22;6031;50.220;10.122;2023-02-03T10:53:51;7.70;99.90
11944;DHT22;6031;50.220;10.122;2023-02-03T10:56:28;7.70;99.90
11944;DHT22;6031;50.220;10.122;2023-02-03T10:58:56;7.70;99.90
11944;DHT22;6031;50.220;10.122;2023-02-03T11:01:44;7.80;99.90
11944;DHT22;6031;50.220;10.122;2023-02-03T11:04:28;7.80;1.00
11944;DHT22;6031;50.220;10.122;2023-02-03T11:06:59;7.80;1.00
11944;DHT22;6031;50.220;10.122;2023-02-03T11:09:35;7.80;1.00
11944;DHT22;6031;50.220;10.122;2023-02-03T11:12:08;7.80;23.00
11944;DHT22;6031;50.220;10.122;2023-02-03T11:14:38;7.80;99.90
11944;DHT22;6031;50.220;10.122;2023-02-03T11:17:06;7.80;99.90
11944;DHT22;6031;50.220;10.122;2023-02-03T11:19:33;7.80;1.00
11944;DHT22;6031;50.220;10.122;2023-02-03T11:21:58;7.80;1.00
11944;DHT22;6031;50.220;10.122;2023-02-03T11:24:33;7.80;99.90
11944;DHT22;6031;50.220;10.122;2023-02-03T11:27:08;7.70;99.90
11944;DHT22;6031;50.220;10.122;2023-02-03T11:29:36;7.80;1.00
11944;DHT22;6031;50.220;10.122;2023-02-03T11:32:13;7.80;1.00
11944;DHT22;6031;50.220;10.122;2023-02-03T11:34:39;7.90;1.00
11944;DHT22;6031;50.220;10.122;2023-02-03T11:40:41;7.80;1.00
11944;DHT22;6031;50.220;10.122;2023-02-03T11:43:00;7.80;1.00
11944;DHT22;6031;50.220;10.122;2023-02-03T11:45:37;7.80;1.00
11944;DHT22;6031;50.220;10.122;2023-02-03T11:56:40;7.70;99.90
11944;DHT22;6031;50.220;10.122;2023-02-03T11:59:35;7.60;1.00
11944;DHT22;6031;50.220;10.122;2023-02-03T12:05:05;7.60;1.00
11944;DHT22;6031;50.220;10.122;2023-02-03T12:16:12;7.70;1.00
11944;DHT22;6031;50.220;10.122;2023-02-03T12:29:44;7.70;1.00
11944;DHT22;6031;50.220;10.122;2023-02-03T12:32:25;7.70;1.00
11944;DHT22;6031;50.220;10.122;2023-02-03T12:34:58;7.60;1.00
11944;DHT22;6031;50.220;10.122;2023-02-03T12:37:45;7.60;6.80
11944;DHT22;6031;50.220;10.122;2023-02-03T12:40:23;7.60;5.90
11944;DHT22;6031;50.220;10.122;2023-02-03T12:42:56;7.60;99.90
11944;DHT22;6031;50.220;10.122;2023-02-03T12:45:28;7.60;99.90
11944;DHT22;6031;50.220;10.122;2023-02-03T12:48:00;7.60;99.90
11944;DHT22;6031;50.220;10.122;2023-02-03T12:50:37;7.60;99.90
11944;DHT22;6031;50.220;10.122;2023-02-03T12:53:16;7.50;99.90
11944;DHT22;6031;50.220;10.122;2023-02-03T12:56:06;7.50;99.90
11944;DHT22;6031;50.220;10.122;2023-02-03T12:58:56;7.50;99.90
11944;DHT22;6031;50.220;10.122;2023-02-03T13:01:29;7.40;99.90
11944;DHT22;6031;50.220;10.122;2023-02-03T13:06:42;7.40;99.90
11944;DHT22;6031;50.220;10.122;2023-02-03T13:14:40;7.30;99.90
11944;DHT22;6031;50.220;10.122;2023-02-03T13:17:21;7.40;99.90
11944;DHT22;6031;50.220;10.122;2023-02-03T13:19:54;7.40;99.90
11944;DHT22;6031;50.220;10.122;2023-02-03T13:22:22;7.40;99.90
11944;DHT22;6031;50.220;10.122;2023-02-03T13:25:08;7.40;99.90
11944;DHT22;6031;50.220;10.122;2023-02-03T13:36:04;7.50;99.90
11944;DHT22;6031;50.220;10.122;2023-02-03T13:41:54;7.50;99.90
11944;DHT22;6031;50.220;10.122;2023-02-03T13:44:25;7.60;99.90
11944;DHT22;6031;50.220;10.122;2023-02-03T13:46:55;7.60;99.90
11944;DHT22;6031;50.220;10.122;2023-02-03T13:49:26;7.60;99.90
11944;DHT22;6031;50.220;10.122;2023-02-03T13:51:53;7.60;99.90
11944;DHT22;6031;50.220;10.122;2023-02-03T13:54:25;7.60;99.90
11944;DHT22;6031;50.220;10.122;2023-02-03T13:57:00;7.60;99.90
11944;DHT22;6031;50.220;10.122;2023-02-03T13:59:43;7.70;99.90
11944;DHT22;6031;50.220;10.122;2023-02-03T14:07:31;7.90;99.90
11944;DHT22;6031;50.220;10.122;2023-02-03T14:12:55;8.10;99.90
11944;DHT22;6031;50.220;10.122;2023-02-03T14:17:56;8.10;99.90
11944;DHT22;6031;50.220;10.122;2023-02-03T14:23:06;8.00;99.90
11944;DHT22;6031;50.220;10.122;2023-02-03T14:25:48;8.00;99.90
11944;DHT22;6031;50.220;10.122;2023-02-03T14:28:19;7.90;99.90
11944;DHT22;6031;50.220;10.122;2023-02-03T14:31:15;7.90;99.90
11944;DHT22;6031;50.220;10.122;2023-02-03T14:34:03;8.00;99.90
11944;DHT22;6031;50.220;10.122;2023-02-03T14:36:34;7.90;99.90
11944;DHT22;6031;50.220;10.122;2023-02-03T14:39:04;8.00;99.90
11944;DHT22;6031;50.220;10.122;2023-02-03T14:47:24;8.10;99.90
11944;DHT22;6031;50.220;10.122;2023-02-03T14:50:00;8.10;99.90
11944;DHT22;6031;50.220;10.122;2023-02-03T14:52:47;8.10;99.90
11944;DHT22;6031;50.220;10.122;2023-02-03T15:00:50;8.10;99.90
11944;DHT22;6031;50.220;10.122;2023-02-03T15:03:19;8.10;99.90
11944;DHT22;6031;50.220;10.122;2023-02-03T15:05:52;8.00;99.90
11944;DHT22;6031;50.220;10.122;2023-02-03T15:08:38;8.00;99.90
11944;DHT22;6031;50.220;10.122;2023-02-03T15:11:22;8.00;99.90
11944;DHT22;6031;50.220;10.122;2023-02-03T15:13:48;7.90;99.90
11944;DHT22;6031;50.220;10.122;2023-02-03T15:16:18;8.00;99.90
11944;DHT22;6031;50.220;10.122;2023-02-03T15:18:44;8.00;99.90
11944;DHT22;6031;50.220;10.122;2023-02-03T15:21:18;8.00;99.90
11944;DHT22;6031;50.220;10.122;2023-02-03T15:23:45;7.90;99.90
11944;DHT22;6031;50.220;10.122;2023-02-03T15:26:23;7.90;99.90
11944;DHT22;6031;50.220;10.122;2023-02-03T15:28:57;8.00;99.90
11944;DHT22;6031;50.220;10.122;2023-02-03T15:31:33;8.00;99.90
11944;DHT22;6031;50.220;10.122;2023-02-03T15:34:10;8.00;99.90
11944;DHT22;6031;50.220;10.122;2023-02-03T15:36:41;8.00;99.90
11944;DHT22;6031;50.220;10.122;2023-02-03T15:39:19;8.00;99.90
11944;DHT22;6031;50.220;10.122;2023-02-03T15:41:49;7.90;99.90
11944;DHT22;6031;50.220;10.122;2023-02-03T15:44:29;7.90;99.90
11944;DHT22;6031;50.220;10.122;2023-02-03T15:46:56;7.90;99.90
11944;DHT22;6031;50.220;10.122;2023-02-03T15:49:31;7.90;99.90
11944;DHT22;6031;50.220;10.122;2023-02-03T15:52:07;7.80;99.90
11944;DHT22;6031;50.220;10.122;2023-02-03T15:54:41;7.90;99.90
11944;DHT22;6031;50.220;10.122;2023-02-03T15:57:17;7.90;99.90
11944;DHT22;6031;50.220;10.122;2023-02-03T15:59:52;7.90;99.90
11944;DHT22;6031;50.220;10.122;2023-02-03T16:02:27;7.90;99.90
11944;DHT22;6031;50.220;10.122;2023-02-03T16:04:53;7.90;99.90
11944;DHT22;6031;50.220;10.122;2023-02-03T16:07:25;7.90;99.90
11944;DHT22;6031;50.220;10.122;2023-02-03T16:09:57;7.80;99.90
11944;DHT22;6031;50.220;10.122;2023-02-03T16:12:27;7.80;99.90
11944;DHT22;6031;50.220;10.122;2023-02-03T16:14:54;7.90;99.90
11944;DHT22;6031;50.220;10.122;2023-02-03T16:17:26;8.00;99.90
11944;DHT22;6031;50.220;10.122;2023-02-03T16:22:45;7.90;99.90
11944;DHT22;6031;50.220;10.122;2023-02-03T16:25:20;7.90;99.90
11944;DHT22;6031;50.220;10.122;2023-02-03T16:30:57;7.90;99.90
11944;DHT22;6031;50.220;10.122;2023-02-03T16:33:45;7.90;99.90
11944;DHT22;6031;50.220;10.122;2023-02-03T16:36:29;7.80;99.90
11944;DHT22;6031;50.220;10.122;2023-02-03T16:39:13;7.80;99.90
11944;DHT22;6031;50.220;10.122;2023-02-03T16:41:59;7.90;99.90
11944;DHT22;6031;50.220;10.122;2023-02-03T16:44:43;7.90;99.90
11944;DHT22;6031;50.220;10.122;2023-02-03T16:47:31;7.90;99.90
11944;DHT22;6031;50.220;10.122;2023-02-03T16:50:21;8.00;99.90
11944;DHT22;6031;50.220;10.122;2023-02-03T16:53:14;8.00;99.90
11944;DHT22;6031;50.220;10.122;2023-02-03T16:55:41;8.00;99.90
11944;DHT22;6031;50.220;10.122;2023-02-03T16:58:07;8.10;99.90
11944;DHT22;6031;50.220;10.122;2023-02-03T17:00:35;8.10;99.90
11944;DHT22;6031;50.220;10.122;2023-02-03T17:03:04;8.10;99.90
11944;DHT22;6031;50.220;10.122;2023-02-03T17:05:29;8.10;99.90
11944;DHT22;6031;50.220;10.122;2023-02-03T17:07:55;8.10;99.90
11944;DHT22;6031;50.220;10.122;2023-02-03T17:10:20;8.10;99.90
11944;DHT22;6031;50.220;10.122;2023-02-03T17:12:46;8.10;99.90
11944;DHT22;6031;50.220;10.122;2023-02-03T17:15:11;8.20;99.90
11944;DHT22;6031;50.220;10.122;2023-02-03T17:17:37;8.20;1.00
11944;DHT22;6031;50.220;10.122;2023-02-03T17:20:03;8.30;1.00
11944;DHT22;6031;50.220;10.122;2023-02-03T17:22:28;8.30;99.90
11944;DHT22;6031;50.220;10.122;2023-02-03T17:24:56;8.40;99.90
11944;DHT22;6031;50.220;10.122;2023-02-03T17:27:22;8.40;99.90
11944;DHT22;6031;50.220;10.122;2023-02-03T17:29:48;8.50;1.00
11944;DHT22;6031;50.220;10.122;2023-02-03T17:32:13;8.50;17.30
11944;DHT22;6031;50.220;10.122;2023-02-03T17:34:39;8.50;99.90
11944;DHT22;6031;50.220;10.122;2023-02-03T17:37:05;8.50;1.00
11944;DHT22;6031;50.220;10.122;2023-02-03T17:39:30;8.30;1.00
11944;DHT22;6031;50.220;10.122;2023-02-03T17:41:56;8.40;1.00
11944;DHT22;6031;50.220;10.122;2023-02-03T17:44:21;8.30;99.90
11944;DHT22;6031;50.220;10.122;2023-02-03T17:46:47;8.20;99.90
11944;DHT22;6031;50.220;10.122;2023-02-03T17:49:12;8.20;1.00
11944;DHT22;6031;50.220;10.122;2023-02-03T17:51:38;8.30;99.90
11944;DHT22;6031;50.220;10.122;2023-02-03T17:54:04;8.30;1.00
11944;DHT22;6031;50.220;10.122;2023-02-03T17:56:32;8.20;1.00
11944;DHT22;6031;50.220;10.122;2023-02-03T17:58:59;8.10;86.70
11944;DHT22;6031;50.220;10.122;2023-02-03T18:01:26;8.10;1.00